sensor_id;sensor_type;location;lat;lon;timestamp;P1;durP1;ratioP1;P2;durP2;ratioP2
71162;SDS011;58858;50.948;6.566;2024-03-23T00:54:57;13.13;;;4.03;;
71162;SDS011;58858;50.948;6.566;2024-03-23T01:04:58;9.15;;;3.80;;
71162;SDS011;58858;50.948;6.566;2024-03-23T01:14:59;20.90;;;5.65;;
71162;SDS011;58858;50.948;6.566;2024-03-23T01:25:01;9.02;;;3.17;;
71162;SDS011;58858;50.948;6.566;2024-03-23T01:35:02;10.55;;;3.92;;
71162;SDS011;58858;50.948;6.566;2024-03-23T01:45:06;6.43;;;2.95;;
71162;SDS011;58858;50.948;6.566;2024-03-23T01:55:08;7.90;;;2.55;;
71162;SDS011;58858;50.948;6.566;2024-03-23T02:05:10;7.22;;;1.70;;
71162;SDS011;58858;50.948;6.566;2024-03-23T02:15:12;5.68;;;1.80;;
71162;SDS011;58858;50.948;6.566;2024-03-23T02:25:13;5.40;;;2.30;;
71162;SDS011;58858;50.948;6.566;2024-03-23T02:35:14;12.48;;;3.33;;
71162;SDS011;58858;50.948;6.566;2024-03-23T02:45:15;6.63;;;1.58;;
71162;SDS011;58858;50.948;6.566;2024-03-23T02:55:16;7.10;;;1.77;;
71162;SDS011;58858;50.948;6.566;2024-03-23T03:05:17;8.68;;;2.63;;
71162;SDS011;58858;50.948;6.566;2024-03-23T03:15:18;11.00;;;2.78;;
71162;SDS011;58858;50.948;6.566;2024-03-23T03:25:19;9.55;;;2.38;;
71162;SDS011;58858;50.948;6.566;2024-03-23T03:35:20;8.23;;;1.77;;
71162;SDS011;58858;50.948;6.566;2024-03-23T03:45:21;12.43;;;2.47;;
71162;SDS011;58858;50.948;6.566;2024-03-23T03:55:23;7.88;;;1.85;;
71162;SDS011;58858;50.948;6.566;2024-03-23T04:05:24;7.80;;;2.63;;
71162;SDS011;58858;50.948;6.566;2024-03-23T04:15:25;5.80;;;2.10;;
71162;SDS011;58858;50.948;6.566;2024-03-23T04:25:26;6.95;;;2.78;;
71162;SDS011;58858;50.948;6.566;2024-03-23T04:35:27;11.02;;;2.65;;
71162;SDS011;58858;50.948;6.566;2024-03-23T04:45:28;11.32;;;1.98;;
71162;SDS011;58858;50.948;6.566;2024-03-23T04:55:29;14.02;;;3.40;;
71162;SDS011;58858;50.948;6.566;2024-03-23T05:05:31;11.05;;;2.65;;
71162;SDS011;58858;50.948;6.566;2024-03-23T05:15:32;12.20;;;2.80;;
71162;SDS011;58858;50.948;6.566;2024-03-23T05:25:35;14.13;;;3.85;;
71162;SDS011;58858;50.948;6.566;2024-03-23T05:35:36;9.25;;;2.80;;
71162;SDS011;58858;50.948;6.566;2024-03-23T05:45:37;18.30;;;3.70;;
71162;SDS011;58858;50.948;6.566;2024-03-23T05:55:38;8.82;;;2.60;;
71162;SDS011;58858;50.948;6.566;2024-03-23T06:05:39;9.55;;;1.90;;
71162;SDS011;58858;50.948;6.566;2024-03-23T06:15:40;12.75;;;3.40;;
71162;SDS011;58858;50.948;6.566;2024-03-23T06:25:41;11.55;;;2.90;;
71162;SDS011;58858;50.948;6.566;2024-03-23T06:35:42;12.65;;;3.10;;
71162;SDS011;58858;50.948;6.566;2024-03-23T06:45:43;10.90;;;4.00;;
71162;SDS011;58858;50.948;6.566;2024-03-23T06:55:49;11.90;;;4.00;;
71162;SDS011;58858;50.948;6.566;2024-03-23T07:05:51;12.40;;;5.57;;
71162;SDS011;58858;50.948;6.566;2024-03-23T07:15:52;19.15;;;7.65;;
71162;SDS011;58858;50.948;6.566;2024-03-23T07:26:00;25.00;;;6.65;;
71162;SDS011;58858;50.948;6.566;2024-03-23T07:36:02;12.65;;;4.72;;
71162;SDS011;58858;50.948;6.566;2024-03-23T07:46:04;6.10;;;1.65;;
71162;SDS011;58858;50.948;6.566;2024-03-23T07:56:06;3.35;;;1.70;;
71162;SDS011;58858;50.948;6.566;2024-03-23T08:06:12;9.75;;;3.22;;
71162;SDS011;58858;50.948;6.566;2024-03-23T08:16:17;7.57;;;3.22;;
71162;SDS011;58858;50.948;6.566;2024-03-23T08:26:18;14.10;;;4.60;;
71162;SDS011;58858;50.948;6.566;2024-03-23T08:36:19;8.52;;;3.97;;
71162;SDS011;58858;50.948;6.566;2024-03-23T08:46:20;11.68;;;4.25;;
71162;SDS011;58858;50.948;6.566;2024-03-23T08:56:21;13.30;;;3.95;;
71162;SDS011;58858;50.948;6.566;2024-03-23T09:06:22;9.38;;;3.90;;
71162;SDS011;58858;50.948;6.566;2024-03-23T09:16:26;9.98;;;3.45;;
71162;SDS011;58858;50.948;6.566;2024-03-23T09:26:27;7.35;;;2.60;;
71162;SDS011;58858;50.948;6.566;2024-03-23T09:36:30;8.77;;;2.22;;
71162;SDS011;58858;50.948;6.566;2024-03-23T09:46:32;8.07;;;2.05;;
71162;SDS011;58858;50.948;6.566;2024-03-23T09:56:35;8.50;;;2.67;;
71162;SDS011;58858;50.948;6.566;2024-03-23T10:06:36;6.38;;;1.95;;
71162;SDS011;58858;50.948;6.566;2024-03-23T10:16:38;8.82;;;2.85;;
71162;SDS011;58858;50.948;6.566;2024-03-23T10:26:39;6.50;;;1.70;;
71162;SDS011;58858;50.948;6.566;2024-03-23T10:36:40;4.95;;;1.63;;
71162;SDS011;58858;50.948;6.566;2024-03-23T10:46:44;7.85;;;1.48;;
71162;SDS011;58858;50.948;6.566;2024-03-23T10:56:45;3.50;;;1.77;;
71162;SDS011;58858;50.948;6.566;2024-03-23T11:06:47;4.97;;;1.48;;
71162;SDS011;58858;50.948;6.566;2024-03-23T11:16:48;4.97;;;1.35;;
71162;SDS011;58858;50.948;6.566;2024-03-23T11:27:15;6.40;;;1.27;;
71162;SDS011;58858;50.948;6.566;2024-03-23T11:37:17;3.25;;;0.63;;
71162;SDS011;58858;50.948;6.566;2024-03-23T11:47:18;4.30;;;1.15;;
71162;SDS011;58858;50.948;6.566;2024-03-23T11:57:19;5.38;;;1.80;;
71162;SDS011;58858;50.948;6.566;2024-03-23T12:07:20;1.73;;;0.90;;
71162;SDS011;58858;50.948;6.566;2024-03-23T12:17:24;3.17;;;0.60;;
71162;SDS011;58858;50.948;6.566;2024-03-23T12:27:25;1.98;;;0.40;;
71162;SDS011;58858;50.948;6.566;2024-03-23T12:37:26;1.25;;;0.25;;
71162;SDS011;58858;50.948;6.566;2024-03-23T12:47:27;3.60;;;0.88;;
71162;SDS011;58858;50.948;6.566;2024-03-23T12:57:28;3.40;;;1.70;;
71162;SDS011;58858;50.948;6.566;2024-03-23T13:07:29;4.50;;;1.65;;
71162;SDS011;58858;50.948;6.566;2024-03-23T13:17:31;7.60;;;2.13;;
71162;SDS011;58858;50.948;6.566;2024-03-23T13:27:32;1.15;;;1.05;;
71162;SDS011;58858;50.948;6.566;2024-03-23T13:37:33;1.85;;;0.50;;
71162;SDS011;58858;50.948;6.566;2024-03-23T13:47:34;3.45;;;2.03;;
71162;SDS011;58858;50.948;6.566;2024-03-23T13:57:35;2.63;;;0.93;;
71162;SDS011;58858;50.948;6.566;2024-03-23T14:07:36;1.58;;;1.10;;
71162;SDS011;58858;50.948;6.566;2024-03-23T14:17:38;3.88;;;1.27;;
71162;SDS011;58858;50.948;6.566;2024-03-23T14:27:39;1.52;;;0.90;;
71162;SDS011;58858;50.948;6.566;2024-03-23T14:37:40;3.42;;;0.75;;
71162;SDS011;58858;50.948;6.566;2024-03-23T14:47:42;3.38;;;1.00;;
71162;SDS011;58858;50.948;6.566;2024-03-23T14:57:43;1.63;;;1.10;;
71162;SDS011;58858;50.948;6.566;2024-03-23T15:07:44;2.58;;;1.00;;
71162;SDS011;58858;50.948;6.566;2024-03-23T15:17:45;0.70;;;0.57;;
71162;SDS011;58858;50.948;6.566;2024-03-23T15:27:47;2.08;;;0.80;;
71162;SDS011;58858;50.948;6.566;2024-03-23T15:37:48;2.00;;;1.25;;
71162;SDS011;58858;50.948;6.566;2024-03-23T15:47:49;3.95;;;0.85;;
71162;SDS011;58858;50.948;6.566;2024-03-23T15:57:51;2.47;;;0.63;;
71162;SDS011;58858;50.948;6.566;2024-03-23T16:07:52;4.78;;;1.35;;
71162;SDS011;58858;50.948;6.566;2024-03-23T16:17:53;1.83;;;0.82;;
71162;SDS011;58858;50.948;6.566;2024-03-23T16:27:54;2.75;;;0.90;;
71162;SDS011;58858;50.948;6.566;2024-03-23T16:37:58;3.63;;;1.05;;
71162;SDS011;58858;50.948;6.566;2024-03-23T16:47:59;2.60;;;0.80;;
71162;SDS011;58858;50.948;6.566;2024-03-23T16:58:02;1.90;;;1.02;;
71162;SDS011;58858;50.948;6.566;2024-03-23T17:08:03;4.95;;;1.88;;
71162;SDS011;58858;50.948;6.566;2024-03-23T17:18:05;10.73;;;5.18;;
71162;SDS011;58858;50.948;6.566;2024-03-23T17:28:07;7.95;;;1.48;;
71162;SDS011;58858;50.948;6.566;2024-03-23T17:38:08;8.43;;;1.48;;
71162;SDS011;58858;50.948;6.566;2024-03-23T17:48:09;9.80;;;2.28;;
71162;SDS011;58858;50.948;6.566;2024-03-23T17:58:11;5.10;;;2.03;;
71162;SDS011;58858;50.948;6.566;2024-03-23T18:08:13;5.03;;;1.05;;
71162;SDS011;58858;50.948;6.566;2024-03-23T18:18:14;2.97;;;1.33;;
71162;SDS011;58858;50.948;6.566;2024-03-23T18:28:15;3.97;;;1.45;;
71162;SDS011;58858;50.948;6.566;2024-03-23T18:38:16;8.80;;;2.15;;
71162;SDS011;58858;50.948;6.566;2024-03-23T18:48:17;7.63;;;2.65;;
71162;SDS011;58858;50.948;6.566;2024-03-23T18:58:18;4.88;;;2.38;;
71162;SDS011;58858;50.948;6.566;2024-03-23T19:08:19;4.93;;;2.10;;
71162;SDS011;58858;50.948;6.566;2024-03-23T19:18:20;3.08;;;1.25;;
71162;SDS011;58858;50.948;6.566;2024-03-23T19:28:21;4.03;;;1.90;;
71162;SDS011;58858;50.948;6.566;2024-03-23T19:38:23;6.60;;;2.17;;
71162;SDS011;58858;50.948;6.566;2024-03-23T19:48:24;9.23;;;2.45;;
71162;SDS011;58858;50.948;6.566;2024-03-23T19:58:25;3.58;;;1.65;;
71162;SDS011;58858;50.948;6.566;2024-03-23T20:08:26;7.20;;;1.83;;
71162;SDS011;58858;50.948;6.566;2024-03-23T20:18:28;6.40;;;1.85;;
71162;SDS011;58858;50.948;6.566;2024-03-23T20:28:30;8.55;;;1.50;;
71162;SDS011;58858;50.948;6.566;2024-03-23T20:38:34;3.83;;;1.52;;
71162;SDS011;58858;50.948;6.566;2024-03-23T20:48:35;5.25;;;1.77;;
71162;SDS011;58858;50.948;6.566;2024-03-23T20:58:41;7.55;;;2.50;;
71162;SDS011;58858;50.948;6.566;2024-03-23T21:08:42;10.13;;;2.50;;
71162;SDS011;58858;50.948;6.566;2024-03-23T21:18:44;7.43;;;2.58;;
71162;SDS011;58858;50.948;6.566;2024-03-23T21:28:45;5.90;;;1.40;;
71162;SDS011;58858;50.948;6.566;2024-03-23T21:38:46;4.63;;;1.52;;
71162;SDS011;58858;50.948;6.566;2024-03-23T21:48:48;3.17;;;1.10;;
71162;SDS011;58858;50.948;6.566;2024-03-23T21:58:49;5.00;;;1.48;;
71162;SDS011;58858;50.948;6.566;2024-03-23T22:08:50;4.82;;;1.98;;
71162;SDS011;58858;50.948;6.566;2024-03-23T22:18:51;2.15;;;1.15;;
71162;SDS011;58858;50.948;6.566;2024-03-23T22:28:52;4.75;;;1.25;;
71162;SDS011;58858;50.948;6.566;2024-03-23T22:38:53;2.72;;;1.17;;
71162;SDS011;58858;50.948;6.566;2024-03-23T22:48:54;2.90;;;1.23;;
71162;SDS011;58858;50.948;6.566;2024-03-23T22:58:55;2.17;;;1.40;;
71162;SDS011;58858;50.948;6.566;2024-03-23T23:08:56;5.22;;;2.50;;
71162;SDS011;58858;50.948;6.566;2024-03-23T23:18:57;3.42;;;1.73;;
71162;SDS011;58858;50.948;6.566;2024-03-23T23:28:58;5.53;;;2.03;;
71162;SDS011;58858;50.948;6.566;2024-03-23T23:39:00;2.17;;;1.60;;
71162;SDS011;58858;50.948;6.566;2024-03-23T23:49:01;3.13;;;1.58;;
71162;SDS011;58858;50.948;6.566;2024-03-23T23:59:02;5.70;;;3.25;;
